Time;durP1;ratioP1;P1;durP2;ratioP2;P2;SDS_P1;SDS_P2;PMS_P1;PMS_P2;Temp;Humidity;BMP_temperature;BMP_pressure;BME280_temperature;BME280_humidity;BME280_pressure;Samples;Min_cycle;Max_cycle;Signal;HPM_P1;HPM_P2
2022/08/07 00:01:06;;;;;;;1999.90;993.13;;;12.20;1.00;;;;;;5051587;28;20076;-87
2022/08/07 00:03:33;;;;;;;1747.32;993.15;;;13.30;1.00;;;;;;5034300;28;20478;-87
2022/08/07 00:05:59;;;;;;;1791.63;993.50;;;12.20;1.00;;;;;;5071790;28;20058;-86
2022/08/07 00:08:25;;;;;;;1999.90;999.90;;;12.70;1.00;;;;;;5037772;28;20060;-88
2022/08/07 00:10:51;;;;;;;1999.90;999.90;;;13.50;1.00;;;;;;5070821;28;20048;-87
2022/08/07 00:13:18;;;;;;;1790.97;906.58;;;12.20;1.00;;;;;;5071297;28;20040;-86
2022/08/07 00:15:44;;;;;;;1937.45;864.85;;;12.10;1.00;;;;;;5037941;28;20209;-87
2022/08/07 00:18:10;;;;;;;1671.68;704.35;;;12.10;1.00;;;;;;5054660;28;20107;-86
2022/08/07 00:20:37;;;;;;;1988.75;949.72;;;12.00;1.00;;;;;;5072391;28;20049;-87
2022/08/07 00:23:06;;;;;;;1999.90;999.90;;;12.00;1.00;;;;;;5053662;28;20393;-87
2022/08/07 00:25:33;;;;;;;1999.90;999.90;;;12.40;1.00;;;;;;5054161;28;20385;-86
2022/08/07 00:27:59;;;;;;;1940.43;871.33;;;12.70;1.00;;;;;;5071853;28;20044;-86
2022/08/07 00:30:25;;;;;;;1999.90;908.55;;;11.90;1.00;;;;;;5071077;28;20045;-87
2022/08/07 00:32:51;;;;;;;1681.28;746.40;;;12.00;1.00;;;;;;5070782;28;20388;-87
2022/08/07 00:35:17;;;;;;;1933.35;877.95;;;12.00;1.00;;;;;;5071328;28;20044;-87
2022/08/07 00:37:44;;;;;;;1881.38;914.08;;;11.90;1.00;;;;;;5070110;28;20071;-87
2022/08/07 00:40:10;;;;;;;1999.90;999.90;;;11.90;1.00;;;;;;5071747;28;20041;-87
2022/08/07 00:42:36;;;;;;;1999.90;999.90;;;11.80;1.00;;;;;;5072036;28;20045;-87
2022/08/07 00:45:03;;;;;;;1999.90;999.90;;;11.90;1.00;;;;;;5071655;28;20041;-87
2022/08/07 00:47:30;;;;;;;1999.90;999.90;;;11.80;1.00;;;;;;5067810;28;20053;-88
2022/08/07 00:49:56;;;;;;;1716.80;845.55;;;12.10;1.00;;;;;;5034168;28;20053;-87
2022/08/07 00:52:21;;;;;;;1805.35;775.80;;;11.80;1.00;;;;;;5033872;28;20473;-87
2022/08/07 00:54:48;;;;;;;1999.90;999.90;;;11.80;1.00;;;;;;5033741;28;20068;-87
2022/08/07 00:57:16;;;;;;;1999.90;999.90;;;11.90;1.00;;;;;;5050782;28;20505;-87
2022/08/07 00:59:43;;;;;;;1999.90;999.90;;;13.20;1.00;;;;;;5051648;28;20548;-86
2022/08/07 01:02:10;;;;;;;1804.13;744.65;;;12.50;1.00;;;;;;5033521;28;20064;-87
2022/08/07 01:04:37;;;;;;;1999.90;999.90;;;;;;;;;;5034259;28;20441;-88
2022/08/07 01:07:03;;;;;;;1761.95;755.80;;;11.80;1.00;;;;;;5049607;28;20052;-87
2022/08/07 01:09:30;;;;;;;1999.90;999.90;;;13.20;1.00;;;;;;5050617;28;20102;-86
2022/08/07 01:11:56;;;;;;;1851.37;946.97;;;11.60;1.00;;;;;;5033796;28;20048;-88
2022/08/07 01:14:23;;;;;;;1707.43;741.67;;;11.70;1.00;;;;;;5050785;28;20107;-86
2022/08/07 01:16:49;;;;;;;1816.68;830.58;;;12.10;1.00;;;;;;5050984;28;20091;-87
2022/08/07 01:19:17;;;;;;;1615.68;709.85;;;11.70;1.00;;;;;;5071419;28;20077;-86
2022/08/07 01:21:43;;;;;;;1510.35;718.88;;;13.00;1.00;;;;;;5054910;28;20056;-87
2022/08/07 01:24:10;;;;;;;1763.38;897.58;;;11.80;1.00;;;;;;5053518;28;20426;-87
2022/08/07 01:26:36;;;;;;;1908.57;919.08;;;11.80;1.00;;;;;;5043267;28;20109;-87
2022/08/07 01:29:03;;;;;;;1662.68;836.40;;;11.80;1.00;;;;;;5079730;28;20078;-86
2022/08/07 01:31:32;;;;;;;1841.07;852.78;;;11.70;1.00;;;;;;5056217;28;20102;-90
2022/08/07 01:33:59;;;;;;;1762.18;826.30;;;13.40;1.00;;;;;;5054883;28;20044;-87
2022/08/07 01:36:27;;;;;;;1675.03;856.40;;;11.70;1.00;;;;;;5055512;28;20120;-88
2022/08/07 01:38:53;;;;;;;1687.28;821.33;;;12.70;1.00;;;;;;5053979;28;20041;-87
2022/08/07 01:41:20;;;;;;;1620.75;748.65;;;11.70;3.30;;;;;;5053994;28;20497;-87
2022/08/07 01:43:48;;;;;;;1700.30;800.45;;;11.60;4.60;;;;;;5053582;28;20045;-88
2022/08/07 01:46:17;;;;;;;1184.72;567.15;;;11.60;1.00;;;;;;5069938;28;20041;-87
2022/08/07 01:48:45;;;;;;;1472.20;695.95;;;11.50;2.80;;;;;;5055171;28;20041;-87
2022/08/07 01:51:20;;;;;;;;;;;11.70;8.30;;;;;;5053914;28;20596;-88
2022/08/07 01:53:50;;;;;;;1767.75;892.25;;;11.50;23.10;;;;;;5053035;28;19935;-88
2022/08/07 01:56:30;;;;;;;1556.22;797.15;;;11.50;5.60;;;;;;5053808;28;20080;-88
2022/08/07 01:59:08;;;;;;;1297.57;588.42;;;11.40;1.00;;;;;;5053040;28;20049;-87
2022/08/07 02:01:44;;;;;;;1836.53;907.20;;;11.50;4.00;;;;;;5036871;28;20041;-87
2022/08/07 02:04:34;;;;;;;1999.90;999.90;;;11.50;3.10;;;;;;5041342;28;20094;-88
2022/08/07 02:07:01;;;;;;;1999.90;999.90;;;11.30;1.00;;;;;;5056290;28;20094;-87
2022/08/07 02:09:29;;;;;;;1909.88;889.60;;;11.50;5.30;;;;;;5072777;28;20505;-88
2022/08/07 02:11:56;;;;;;;;;;;12.50;3.90;;;;;;5073638;28;20055;-88
2022/08/07 02:14:25;;;;;;;1245.10;623.30;;;11.30;11.80;;;;;;5073275;28;19920;-89
2022/08/07 02:16:53;;;;;;;1174.50;602.58;;;11.80;15.00;;;;;;5073281;28;20053;-88
2022/08/07 02:19:20;;;;;;;1560.55;813.28;;;11.20;7.30;;;;;;5056422;28;20087;-88
2022/08/07 02:21:48;;;;;;;1809.20;958.40;;;11.20;8.60;;;;;;5056315;28;20078;-88
2022/08/07 02:24:16;;;;;;;1414.18;758.38;;;11.20;13.50;;;;;;5055380;28;20127;-88
2022/08/07 02:26:42;;;;;;;1737.53;805.35;;;;;;;;;;5056306;28;20052;-87
2022/08/07 02:29:09;;;;;;;1813.13;835.15;;;11.10;24.20;;;;;;5055003;28;20109;-89
2022/08/07 02:31:36;;;;;;;1304.13;661.97;;;11.20;37.00;;;;;;5090019;28;20366;-88
2022/08/07 02:34:04;;;;;;;1522.35;746.17;;;11.10;46.80;;;;;;5039445;28;20139;-87
2022/08/07 02:36:31;;;;;;;1380.63;711.65;;;11.10;49.70;;;;;;5056413;28;20082;-88
2022/08/07 02:38:59;;;;;;;1618.10;769.60;;;11.80;63.10;;;;;;5037669;28;20055;-86
2022/08/07 02:41:26;;;;;;;;;;;12.80;79.50;;;;;;5056581;28;20101;-87
2022/08/07 02:43:53;;;;;;;1821.13;909.17;;;11.20;99.90;;;;;;5055957;28;20316;-87
2022/08/07 02:46:23;;;;;;;1999.90;999.90;;;11.10;99.90;;;;;;5072238;28;20048;-87
2022/08/07 02:48:49;;;;;;;1868.55;935.83;;;11.10;99.90;;;;;;5036339;28;20052;-86
2022/08/07 02:51:18;;;;;;;1680.18;822.78;;;11.00;93.40;;;;;;5052409;28;20045;-87
2022/08/07 02:53:53;;;;;;;1848.15;923.85;;;11.00;97.60;;;;;;5052847;28;20128;-87
2022/08/07 02:56:20;;;;;;;1999.90;999.90;;;11.10;94.20;;;;;;5052454;28;20110;-87
2022/08/07 02:58:49;;;;;;;1576.22;848.85;;;11.10;90.10;;;;;;5035241;28;20045;-88
2022/08/07 03:01:16;;;;;;;1718.70;920.15;;;11.00;94.60;;;;;;5052042;28;20467;-88
2022/08/07 03:03:45;;;;;;;1831.20;951.55;;;10.90;99.90;;;;;;5036633;28;20107;-88
2022/08/07 03:06:12;;;;;;;1903.35;987.63;;;12.00;99.90;;;;;;5055491;28;20048;-87
2022/08/07 03:08:41;;;;;;;1624.82;926.70;;;11.10;99.90;;;;;;5038880;28;20057;-87
2022/08/07 03:11:07;;;;;;;1748.78;999.90;;;10.70;99.90;;;;;;5089090;28;20080;-87
2022/08/07 03:13:33;;;;;;;1864.25;999.90;;;11.50;99.90;;;;;;5039073;28;20053;-88
2022/08/07 03:16:00;;;;;;;1553.75;944.42;;;10.90;99.90;;;;;;5055023;28;20059;-88
2022/08/07 03:18:28;;;;;;;1678.95;979.47;;;10.90;99.90;;;;;;5041819;28;20049;-87
2022/08/07 03:20:54;;;;;;;1757.05;999.90;;;10.90;99.90;;;;;;5052335;28;20059;-88
2022/08/07 03:23:20;;;;;;;1632.53;998.35;;;10.80;99.90;;;;;;5051131;28;20386;-87
2022/08/07 03:25:47;;;;;;;1555.70;996.55;;;10.80;99.90;;;;;;5052768;28;20045;-87
2022/08/07 03:28:16;;;;;;;1618.38;999.90;;;10.80;99.90;;;;;;5051669;28;20088;-87
2022/08/07 03:30:46;;;;;;;1485.50;985.05;;;10.90;99.90;;;;;;5051970;28;20056;-88
2022/08/07 03:33:16;;;;;;;1870.93;997.85;;;11.30;99.90;;;;;;5051381;28;20053;-87
2022/08/07 03:35:42;;;;;;;1696.07;999.90;;;10.30;99.90;;;;;;5051831;28;20045;-87
2022/08/07 03:38:10;;;;;;;1305.32;942.25;;;10.70;99.90;;;;;;5034204;28;20049;-87
2022/08/07 03:40:37;;;;;;;1563.78;983.35;;;12.70;99.90;;;;;;5066997;28;20524;-89
2022/08/07 03:43:06;;;;;;;1420.28;980.03;;;10.70;99.90;;;;;;5034469;28;20056;-88
2022/08/07 03:45:32;;;;;;;1547.20;999.90;;;10.80;99.90;;;;;;5051894;28;20049;-88
2022/08/07 03:47:59;;;;;;;1283.15;926.67;;;12.60;99.90;;;;;;5051748;28;20052;-88
2022/08/07 03:50:28;;;;;;;1451.03;983.53;;;10.80;99.90;;;;;;5051403;28;20102;-88
2022/08/07 03:52:57;;;;;;;1829.72;999.90;;;10.80;99.90;;;;;;5051066;28;20138;-87
2022/08/07 03:55:27;;;;;;;1807.40;991.78;;;10.60;99.90;;;;;;5050885;28;20049;-87
2022/08/07 03:57:53;;;;;;;1837.22;999.90;;;;;;;;;;5051594;28;20051;-88
2022/08/07 04:00:19;;;;;;;1698.80;999.90;;;10.70;99.90;;;;;;5034593;28;20434;-88
2022/08/07 04:02:47;;;;;;;1662.43;987.70;;;10.70;99.90;;;;;;5017617;28;20095;-88
2022/08/07 04:05:15;;;;;;;1746.38;999.90;;;12.10;99.90;;;;;;5064707;28;20507;-88
2022/08/07 04:07:45;;;;;;;1475.85;951.28;;;10.60;99.90;;;;;;5026177;28;20088;-87
2022/08/07 04:10:12;;;;;;;1594.82;989.25;;;10.70;99.90;;;;;;5034047;28;20079;-88
2022/08/07 04:12:38;;;;;;;1746.28;999.90;;;12.50;99.90;;;;;;5034436;28;20045;-88
2022/08/07 04:15:05;;;;;;;1658.85;998.90;;;11.80;99.90;;;;;;5050712;28;20048;-87
2022/08/07 04:17:31;;;;;;;1605.35;999.90;;;10.60;99.90;;;;;;5017998;28;20084;-88
2022/08/07 04:19:57;;;;;;;1653.53;999.90;;;12.20;99.90;;;;;;5034717;28;20084;-87
2022/08/07 04:22:24;;;;;;;1714.30;999.90;;;10.60;99.90;;;;;;5033923;28;20107;-87
2022/08/07 04:24:53;;;;;;;1565.55;999.90;;;12.30;99.90;;;;;;5034239;28;20107;-87
2022/08/07 04:27:19;;;;;;;1618.60;960.95;;;10.70;99.90;;;;;;5034349;28;20063;-87
2022/08/07 04:29:45;;;;;;;1844.32;999.90;;;10.80;99.90;;;;;;5034788;28;20045;-88
2022/08/07 04:32:11;;;;;;;1537.40;974.83;;;10.60;99.90;;;;;;5033948;28;20559;-88
2022/08/07 04:34:38;;;;;;;1756.57;999.90;;;;;;;;;;5050661;28;20084;-88
2022/08/07 04:37:04;;;;;;;1635.50;999.90;;;10.70;99.90;;;;;;5034044;28;20142;-87
2022/08/07 04:39:30;;;;;;;1673.05;999.90;;;12.50;99.90;;;;;;5033770;28;20044;-87
2022/08/07 04:41:56;;;;;;;1675.20;999.90;;;10.70;99.90;;;;;;5034405;28;20052;-87
2022/08/07 04:44:21;;;;;;;1723.35;999.90;;;12.10;99.90;;;;;;5017323;28;20139;-89
2022/08/07 04:47:06;;;;;;;1721.00;999.90;;;10.80;99.90;;;;;;5067295;28;20098;-89
2022/08/07 04:49:44;;;;;;;1699.78;999.90;;;10.90;99.90;;;;;;5050734;28;20174;-88
2022/08/07 04:52:27;;;;;;;1679.55;999.90;;;10.80;99.90;;;;;;5034982;28;20110;-89
2022/08/07 04:55:01;;;;;;;1719.78;999.90;;;10.90;99.90;;;;;;5054290;28;20052;-88
2022/08/07 04:57:38;;;;;;;1328.82;915.42;;;10.90;99.90;;;;;;5071304;28;20045;-88
2022/08/07 05:00:12;;;;;;;1325.30;915.67;;;10.90;99.90;;;;;;5038440;28;20076;-88
2022/08/07 05:03:08;;;;;;;1442.68;971.00;;;10.90;99.90;;;;;;5037991;28;20132;-87
2022/08/07 05:05:42;;;;;;;1257.63;880.75;;;11.10;99.90;;;;;;5054210;28;20053;-88
2022/08/07 05:08:30;;;;;;;1764.40;999.90;;;11.00;99.90;;;;;;5057669;28;20064;-88
2022/08/07 05:11:13;;;;;;;1424.78;997.53;;;11.10;99.90;;;;;;5074234;28;20036;-87
2022/08/07 05:13:51;;;;;;;1675.57;999.90;;;11.00;99.90;;;;;;5057605;28;20305;-88
2022/08/07 05:16:19;;;;;;;1745.38;999.90;;;11.30;99.90;;;;;;5057660;28;20050;-88
2022/08/07 05:18:54;;;;;;;1488.18;995.03;;;11.60;99.90;;;;;;5059457;28;20041;-88
2022/08/07 05:21:25;;;;;;;1775.13;999.90;;;11.20;99.90;;;;;;5054112;28;20044;-87
2022/08/07 05:23:57;;;;;;;1711.03;999.90;;;11.20;99.90;;;;;;5053345;28;20501;-88
2022/08/07 05:26:26;;;;;;;1673.32;999.90;;;12.60;99.90;;;;;;5054883;28;20485;-88
2022/08/07 05:28:54;;;;;;;1669.68;999.90;;;11.30;99.90;;;;;;5055226;28;20049;-88
2022/08/07 05:31:23;;;;;;;1689.22;999.90;;;11.40;99.90;;;;;;5055465;28;20083;-88
2022/08/07 05:33:50;;;;;;;1606.53;999.90;;;11.60;99.90;;;;;;5054177;28;20048;-88
2022/08/07 05:36:17;;;;;;;1662.70;999.90;;;11.70;99.90;;;;;;5037304;28;20542;-88
2022/08/07 05:38:44;;;;;;;1618.38;999.90;;;10.70;99.90;;;;;;5036707;28;20053;-88
2022/08/07 05:41:11;;;;;;;1621.82;999.90;;;11.80;99.90;;;;;;5037717;28;20049;-88
2022/08/07 05:43:38;;;;;;;1594.25;999.90;;;13.70;99.90;;;;;;5036983;28;20076;-89
2022/08/07 05:46:07;;;;;;;1770.50;999.90;;;11.90;99.90;;;;;;5037481;28;20045;-88
2022/08/07 05:48:34;;;;;;;1755.93;999.90;;;11.40;99.90;;;;;;5053362;28;20041;-89
2022/08/07 05:51:01;;;;;;;1756.00;999.90;;;11.80;99.90;;;;;;5037430;28;20040;-88
2022/08/07 05:53:27;;;;;;;1719.90;999.90;;;11.90;99.90;;;;;;5036089;28;20053;-89
2022/08/07 05:55:55;;;;;;;1724.28;999.90;;;11.90;99.90;;;;;;5036951;28;20047;-88
2022/08/07 05:58:26;;;;;;;1772.30;999.90;;;12.00;99.90;;;;;;5053428;28;20047;-88
2022/08/07 06:00:57;;;;;;;1797.57;999.90;;;12.10;99.90;;;;;;5053835;28;20139;-88
2022/08/07 06:03:23;;;;;;;1535.03;999.90;;;12.00;99.90;;;;;;5051399;28;20053;-87
2022/08/07 06:05:51;;;;;;;1817.23;999.90;;;12.10;99.90;;;;;;5053741;28;20084;-88
2022/08/07 06:08:17;;;;;;;1966.03;999.90;;;12.10;99.90;;;;;;5052917;28;20044;-89
2022/08/07 06:10:43;;;;;;;1835.78;999.90;;;12.20;99.90;;;;;;5052687;28;20048;-88
2022/08/07 06:13:10;;;;;;;1820.60;999.90;;;12.30;99.90;;;;;;5036662;28;20052;-88
2022/08/07 06:15:37;;;;;;;1854.57;999.90;;;;;;;;;;5036491;28;20041;-88
2022/08/07 06:18:03;;;;;;;1928.80;999.90;;;12.50;99.90;;;;;;5052923;28;20539;-87
2022/08/07 06:20:36;;;;;;;1728.85;999.90;;;12.40;99.90;;;;;;5036815;28;20094;-88
2022/08/07 06:23:07;;;;;;;1841.47;999.90;;;12.40;99.90;;;;;;5035962;28;20092;-88
2022/08/07 06:25:36;;;;;;;1947.57;999.90;;;12.60;99.90;;;;;;5035800;28;20041;-88
2022/08/07 06:28:06;;;;;;;1738.05;999.90;;;12.70;99.90;;;;;;5053002;28;20049;-87
2022/08/07 06:30:36;;;;;;;1875.47;999.90;;;12.80;99.90;;;;;;5036442;28;20409;-87
2022/08/07 06:33:06;;;;;;;1243.18;999.90;;;13.00;99.90;;;;;;5052951;28;20059;-87
2022/08/07 06:35:33;;;;;;;1808.78;999.90;;;13.40;99.90;;;;;;5052833;28;20055;-87
2022/08/07 06:37:59;;;;;;;1746.07;999.90;;;13.60;99.90;;;;;;5052581;28;20087;-87
2022/08/07 06:40:28;;;;;;;1818.43;999.90;;;13.70;99.90;;;;;;5052115;28;20076;-88
2022/08/07 06:42:56;;;;;;;1733.93;999.90;;;13.90;99.90;;;;;;5036493;28;20095;-87
2022/08/07 06:45:23;;;;;;;1954.47;999.90;;;14.10;99.90;;;;;;5052813;28;20055;-87
2022/08/07 06:47:49;;;;;;;1931.00;999.90;;;14.20;99.90;;;;;;5036279;28;20053;-88
2022/08/07 06:50:15;;;;;;;1645.53;999.90;;;14.20;99.90;;;;;;5054707;28;20047;-87
2022/08/07 06:52:48;;;;;;;1999.90;999.90;;;14.20;99.90;;;;;;5035908;28;20400;-88
2022/08/07 06:55:24;;;;;;;1999.90;999.90;;;14.60;9.60;;;;;;5052646;28;20386;-89
2022/08/07 06:57:52;;;;;;;1576.68;999.90;;;14.80;5.80;;;;;;5052862;28;20474;-87
2022/08/07 07:00:18;;;;;;;1999.90;999.90;;;14.90;21.00;;;;;;5069115;28;20037;-87
2022/08/07 07:02:48;;;;;;;1634.50;999.90;;;15.10;13.30;;;;;;5051412;28;20057;-88
2022/08/07 07:05:14;;;;;;;1999.90;999.90;;;15.20;1.00;;;;;;5019608;28;20044;-88
2022/08/07 07:07:44;;;;;;;1999.90;999.90;;;15.40;1.00;;;;;;5068480;28;20380;-89
2022/08/07 07:10:12;;;;;;;1405.18;999.90;;;15.70;1.00;;;;;;5069541;28;20056;-87
2022/08/07 07:12:48;;;;;;;869.83;789.75;;;16.70;1.00;;;;;;5069209;28;20131;-88
2022/08/07 07:15:22;;;;;;;934.15;853.47;;;17.60;99.90;;;;;;5069951;28;20127;-87
2022/08/07 07:18:14;;;;;;;936.80;859.53;;;18.40;99.90;;;;;;5052720;28;20537;-88
2022/08/07 07:20:48;;;;;;;774.53;711.92;;;19.00;99.90;;;;;;5068846;28;20187;-87
2022/08/07 07:23:14;;;;;;;888.05;812.80;;;19.20;99.90;;;;;;5068883;28;20045;-87
2022/08/07 07:25:43;;;;;;;844.20;778.63;;;19.30;99.90;;;;;;5035063;28;20049;-88
2022/08/07 07:28:26;;;;;;;994.08;905.95;;;19.40;99.90;;;;;;5052531;28;20478;-88
2022/08/07 07:31:20;;;;;;;930.05;850.50;;;20.70;99.90;;;;;;5051764;28;20153;-88
2022/08/07 07:33:53;;;;;;;1374.00;844.47;;;22.50;98.40;;;;;;5035512;28;20055;-87
2022/08/07 07:36:23;;;;;;;1999.90;999.90;;;23.50;40.70;;;;;;5067641;28;20124;-88
2022/08/07 07:38:57;;;;;;;1999.90;999.90;;;24.90;44.10;;;;;;5034443;28;20136;-89
2022/08/07 07:41:25;;;;;;;1999.90;999.90;;;24.50;1.00;;;;;;5035362;28;20056;-89
2022/08/07 07:43:52;;;;;;;;;;;24.90;1.00;;;;;;5035070;28;20044;-88
2022/08/07 07:46:24;;;;;;;1999.90;999.90;;;26.00;1.00;;;;;;5035275;28;19927;-88
2022/08/07 07:48:54;;;;;;;1999.90;999.90;;;26.60;1.00;;;;;;5034659;28;20049;-88
2022/08/07 07:51:21;;;;;;;1999.90;999.90;;;27.10;1.00;;;;;;5035235;28;20076;-88
2022/08/07 07:53:49;;;;;;;1999.90;999.90;;;27.30;1.00;;;;;;5033514;28;20056;-88
2022/08/07 07:56:28;;;;;;;1999.90;999.90;;;28.10;1.00;;;;;;5035035;28;20103;-89
2022/08/07 07:58:55;;;;;;;1999.90;999.90;;;28.20;1.00;;;;;;5034423;28;20053;-86
2022/08/07 08:01:25;;;;;;;1999.90;999.90;;;28.50;1.00;;;;;;5051651;28;20068;-87
2022/08/07 08:03:56;;;;;;;1999.90;999.90;;;28.00;1.00;;;;;;5036461;28;20409;-88
2022/08/07 08:06:46;;;;;;;1999.90;999.90;;;29.00;1.00;;;;;;5052827;28;20102;-89
2022/08/07 08:09:22;;;;;;;1999.90;999.90;;;30.00;1.00;;;;;;5050567;28;20048;-88
2022/08/07 08:11:50;;;;;;;1999.90;999.90;;;29.60;1.00;;;;;;5034501;28;20080;-87
2022/08/07 08:14:18;;;;;;;1007.38;707.47;;;29.60;1.00;;;;;;5051329;28;20060;-86
2022/08/07 08:16:45;;;;;;;420.70;395.02;;;30.00;1.00;;;;;;5051053;28;20047;-87
2022/08/07 08:19:20;;;;;;;543.10;499.67;;;29.70;1.00;;;;;;5034644;28;20123;-87
2022/08/07 08:27:26;;;;;;;599.33;548.65;;;30.50;1.00;;;;;;5050729;28;20055;-87
2022/08/07 08:29:59;;;;;;;458.30;428.63;;;30.30;1.00;;;;;;5034320;28;20041;-87
2022/08/07 08:32:28;;;;;;;652.08;598.05;;;31.50;1.00;;;;;;5034564;28;20056;-86
2022/08/07 08:35:00;;;;;;;683.90;616.22;;;31.60;1.00;;;;;;5050808;28;20049;-88
2022/08/07 08:37:29;;;;;;;386.77;363.35;;;31.90;1.00;;;;;;5050540;28;20112;-87
2022/08/07 08:39:56;;;;;;;431.60;404.33;;;31.60;1.00;;;;;;5033713;28;20099;-87
2022/08/07 08:42:49;;;;;;;362.87;342.03;;;32.20;1.00;;;;;;5034242;28;20049;-87
2022/08/07 08:45:26;;;;;;;432.35;404.13;;;32.30;1.00;;;;;;5051122;28;20067;-88
2022/08/07 08:48:08;;;;;;;370.47;346.67;;;32.80;1.00;;;;;;5034941;28;20067;-89
2022/08/07 08:51:00;;;;;;;394.65;369.75;;;33.10;1.00;;;;;;5034712;28;20128;-88
2022/08/07 08:54:01;;;;;;;466.35;433.88;;;33.30;1.00;;;;;;5050991;28;20132;-90
2022/08/07 08:56:40;;;;;;;422.17;397.63;;;33.50;1.00;;;;;;5045179;28;20049;-89
2022/08/07 08:59:12;;;;;;;393.23;369.90;;;33.00;1.00;;;;;;5054727;28;20048;-90
2022/08/07 09:02:01;;;;;;;514.33;478.63;;;33.50;1.00;;;;;;5054772;28;20047;-89
2022/08/07 09:04:42;;;;;;;419.23;393.05;;;33.10;1.00;;;;;;5054028;28;20097;-89
2022/08/07 09:07:51;;;;;;;;;;;;;;;;;;;;;
2022/08/07 09:10:30;;;;;;;334.58;314.95;;;34.60;1.00;;;;;;5046555;28;20063;-90
2022/08/07 09:13:22;;;;;;;521.35;485.98;;;35.50;1.00;;;;;;5055115;28;20052;-88
2022/08/07 09:16:28;;;;;;;391.95;368.95;;;35.80;1.00;;;;;;5056165;28;20056;-89
2022/08/07 09:19:07;;;;;;;296.98;279.02;;;35.90;99.90;;;;;;5087752;28;20378;-88
2022/08/07 09:21:47;;;;;;;390.13;365.92;;;35.90;99.90;;;;;;5054188;28;20040;-88
2022/08/07 09:24:37;;;;;;;360.58;337.40;;;34.40;99.90;;;;;;5053330;28;20052;-88
2022/08/07 09:27:21;;;;;;;304.95;287.20;;;34.70;99.90;;;;;;5053945;28;20043;-88
2022/08/07 09:30:09;;;;;;;313.52;295.13;;;34.60;99.90;;;;;;5053698;28;20040;-87
2022/08/07 09:33:25;;;;;;;;;;;;;;;;;;;;;
2022/08/07 09:36:01;;;;;;;446.83;413.33;;;35.40;99.90;;;;;;5068245;28;20056;-89
2022/08/07 09:38:47;;;;;;;525.17;490.27;;;33.90;99.90;;;;;;5050112;28;20078;-89
2022/08/07 09:41:32;;;;;;;284.45;268.17;;;34.10;99.90;;;;;;5037629;28;20041;-87
2022/08/07 09:44:17;;;;;;;358.25;336.40;;;34.50;99.90;;;;;;5053569;28;20051;-89
2022/08/07 09:47:07;;;;;;;397.63;369.73;;;35.60;99.90;;;;;;5037323;28;20052;-87
2022/08/07 09:49:51;;;;;;;293.15;276.20;;;34.50;99.90;;;;;;5070792;28;20478;-89
2022/08/07 09:52:39;;;;;;;399.80;374.60;;;35.20;99.90;;;;;;5036804;28;20048;-88
2022/08/07 09:55:49;;;;;;;313.85;295.13;;;34.20;99.90;;;;;;5036642;28;20037;-86
2022/08/07 09:58:33;;;;;;;458.17;425.23;;;34.10;99.90;;;;;;5015875;28;20124;-88
2022/08/07 10:01:26;;;;;;;561.55;520.00;;;34.80;99.90;;;;;;5034924;28;20063;-88
2022/08/07 10:04:32;;;;;;;344.13;324.50;;;35.10;99.90;;;;;;5039039;28;20103;-87
2022/08/07 10:07:23;;;;;;;694.13;646.00;;;35.90;99.90;;;;;;5056163;28;20440;-88
2022/08/07 10:10:29;;;;;;;327.52;307.27;;;36.80;99.90;;;;;;5056648;28;20180;-87
2022/08/07 10:13:10;;;;;;;369.88;342.95;;;36.60;99.90;;;;;;5056607;28;20044;-87
2022/08/07 10:16:10;;;;;;;297.65;279.70;;;37.20;99.90;;;;;;5073330;28;20045;-87
2022/08/07 10:19:10;;;;;;;352.17;330.55;;;37.60;99.90;;;;;;5056172;28;20051;-87
2022/08/07 10:21:56;;;;;;;355.02;332.65;;;37.70;99.90;;;;;;5056778;28;20385;-88
2022/08/07 10:24:56;;;;;;;269.92;254.13;;;36.70;99.90;;;;;;5056237;28;20044;-87
2022/08/07 10:27:39;;;;;;;264.70;249.40;;;36.90;99.90;;;;;;5038637;28;20512;-87
2022/08/07 10:30:14;;;;;;;471.08;438.08;;;37.40;99.90;;;;;;5036049;28;20037;-89
2022/08/07 10:33:02;;;;;;;281.52;264.95;;;38.20;99.90;;;;;;5036641;28;20152;-88
2022/08/07 10:35:33;;;;;;;555.85;517.55;;;38.70;99.90;;;;;;5036202;28;20555;-87
2022/08/07 10:38:13;;;;;;;422.98;391.85;;;38.70;99.90;;;;;;5035509;28;20076;-86
2022/08/07 10:40:49;;;;;;;470.70;439.48;;;38.60;99.90;;;;;;5036008;28;20486;-86
2022/08/07 10:43:33;;;;;;;284.05;267.30;;;36.50;99.90;;;;;;5036013;28;20486;-87
2022/08/07 10:46:28;;;;;;;332.20;312.20;;;35.90;99.90;;;;;;5036143;28;20504;-85
2022/08/07 10:49:13;;;;;;;295.98;278.42;;;34.60;99.90;;;;;;5051324;28;20053;-86
2022/08/07 10:51:51;;;;;;;419.20;393.05;;;35.60;99.90;;;;;;5036022;28;20044;-87
2022/08/07 10:54:36;;;;;;;278.95;262.35;;;36.20;99.90;;;;;;5035797;28;20048;-86
2022/08/07 10:57:33;;;;;;;269.95;254.02;;;37.00;99.90;;;;;;5049555;28;20052;-86
2022/08/07 11:00:11;;;;;;;281.08;264.55;;;34.40;99.90;;;;;;5055748;28;20544;-86
2022/08/07 11:03:05;;;;;;;573.67;534.58;;;35.10;99.90;;;;;;5072423;28;20140;-86
2022/08/07 11:05:39;;;;;;;271.60;256.15;;;35.10;99.90;;;;;;5072134;28;20400;-86
2022/08/07 11:08:21;;;;;;;366.85;342.75;;;35.90;99.90;;;;;;5071795;28;20508;-86
2022/08/07 11:11:00;;;;;;;343.75;322.48;;;36.30;99.90;;;;;;5071890;28;20044;-86
2022/08/07 11:13:38;;;;;;;283.38;266.73;;;37.10;99.90;;;;;;5072336;28;20049;-87
2022/08/07 11:16:14;;;;;;;354.63;332.00;;;37.50;99.90;;;;;;5055447;28;20063;-87
2022/08/07 11:18:53;;;;;;;264.52;249.18;;;35.70;99.90;;;;;;5055590;28;20485;-86
2022/08/07 11:21:35;;;;;;;395.88;371.73;;;35.70;99.90;;;;;;5073542;28;20051;-86
2022/08/07 11:24:21;;;;;;;296.30;278.55;;;36.70;99.90;;;;;;5054139;28;20037;-87
2022/08/07 11:26:56;;;;;;;723.75;672.00;;;37.50;99.90;;;;;;5055557;28;20508;-86
2022/08/07 11:29:35;;;;;;;584.45;544.90;;;36.80;99.90;;;;;;5055469;28;20080;-86
2022/08/07 11:32:10;;;;;;;345.38;325.35;;;35.20;99.90;;;;;;5054690;28;20506;-85
2022/08/07 11:34:52;;;;;;;312.48;294.42;;;36.60;99.90;;;;;;5055515;28;20056;-86
2022/08/07 11:37:59;;;;;;;324.95;304.75;;;37.40;99.90;;;;;;5068090;28;20045;-86
2022/08/07 11:40:30;;;;;;;335.60;315.77;;;37.20;99.90;;;;;;5034910;28;20049;-86
2022/08/07 11:43:17;;;;;;;666.88;621.33;;;37.40;99.90;;;;;;5034908;28;20049;-86
2022/08/07 11:46:01;;;;;;;346.90;325.27;;;37.90;99.90;;;;;;5051797;28;20090;-87
2022/08/07 11:49:04;;;;;;;469.88;438.98;;;38.20;99.90;;;;;;5051472;28;20053;-87
2022/08/07 11:51:58;;;;;;;474.98;444.65;;;37.90;99.90;;;;;;5052071;28;20091;-87
2022/08/07 11:54:52;;;;;;;876.30;800.60;;;38.00;99.90;;;;;;5068077;28;20486;-87
2022/08/07 11:57:41;;;;;;;711.25;655.50;;;38.60;99.90;;;;;;5034165;28;20078;-88
2022/08/07 12:00:14;;;;;;;533.20;497.38;;;38.80;99.90;;;;;;5051177;28;20053;-86
2022/08/07 12:03:04;;;;;;;375.60;350.67;;;39.20;99.90;;;;;;5033969;28;20119;-86
2022/08/07 12:06:04;;;;;;;322.35;304.15;;;39.20;99.90;;;;;;5050987;28;20060;-86
2022/08/07 12:08:46;;;;;;;380.73;356.05;;;39.20;99.90;;;;;;5054858;28;20063;-86
2022/08/07 12:11:23;;;;;;;292.05;274.65;;;37.50;99.90;;;;;;5072761;28;20535;-86
2022/08/07 12:14:07;;;;;;;283.70;266.85;;;36.30;99.90;;;;;;5071768;28;20052;-86
2022/08/07 12:16:41;;;;;;;260.58;245.68;;;35.80;99.90;;;;;;5071255;28;20044;-87
2022/08/07 12:19:38;;;;;;;483.20;450.48;;;35.30;99.90;;;;;;5054546;28;20052;-86
2022/08/07 12:22:18;;;;;;;307.20;288.50;;;36.00;99.90;;;;;;5055079;28;20048;-86
2022/08/07 12:28:01;;;;;;;588.28;546.65;;;35.20;99.90;;;;;;5051774;28;20049;-87
2022/08/07 12:30:32;;;;;;;1999.90;999.90;;;34.20;99.90;;;;;;5053167;28;20045;-87
2022/08/07 12:33:17;;;;;;;585.10;533.83;;;33.50;99.90;;;;;;5035416;28;20052;-91
2022/08/07 12:35:47;;;;;;;1999.90;999.90;;;31.50;99.90;;;;;;5052343;28;20048;-86
2022/08/07 12:38:14;;;;;;;811.88;738.00;;;31.10;99.90;;;;;;5067528;28;20045;-88
2022/08/07 12:40:43;;;;;;;663.05;614.28;;;30.70;99.90;;;;;;5034082;28;20060;-86
2022/08/07 12:43:12;;;;;;;1276.40;750.38;;;30.20;99.90;;;;;;5033904;28;20088;-87
2022/08/07 12:46:16;;;;;;;1652.78;887.67;;;29.80;99.90;;;;;;5067668;28;20060;-88
2022/08/07 12:48:52;;;;;;;795.45;726.95;;;29.30;99.90;;;;;;5009747;28;20356;-87
2022/08/07 12:51:22;;;;;;;981.35;694.33;;;28.80;99.90;;;;;;5025816;28;20057;-87
2022/08/07 12:54:30;;;;;;;1680.90;914.28;;;28.60;99.90;;;;;;5066679;28;20119;-88